Terminal Aerodrome Forecast
Issued by NWS Brownsville, TX

Home | Current Version | Previous Version | Text Only | Print | Product List | Glossary On
Versions: 1 2 3 4 5 6 7 8 9 10 11 12 13 14 15 16 17 18 19 20 21 22 23 24 25 26 27 28 29 30
261
FTUS44 KBRO 191900 AAC
TAFBRO
TAF AMD
KBRO 191900Z 1919/2018 15028G37KT P6SM BKN030
     FM200300 16015KT P6SM BKN015
     FM200500 16015KT P6SM OVC008
     FM200700 16017G23KT P6SM OVC015=

USA.gov is the U.S. government's official web portal to all federal, state and local government web resources and services.